East Shoals, Indiana
Current Conditions -  °F | °C
As of 6:35 AM on Thursday 23 Oct 2014 (Local Time) from KDCY Reporting Station
Haze Haze  
Wind Chill: 35°   Ceiling: 700
Heat Index: 35°   Visibility: 1mi
Dew Point: 35°   Wind: 0mph
Humidity: 100%   Direction: NA
Pressure: 30.25"   Gusts: NA
Location:  38.6262°N, 86.7615°W
Report Text: KDCY 231135Z AUTO 00000KT 1SM BR VV007 02/02 A3025 RMK AO2 T00170017
Loading
Personal Weather Stations






























Interactive Weather Map New forecast layout! Learn more

10-Day Weather Forecast

Advertisements
Track Severe Weather on mobile